Time,TemperatureF,DewpointF,PressureIn,WindDirection,WindDirectionDegrees,WindSpeedMPH,WindSpeedGustMPH,Humidity,HourlyPrecipIn,Conditions,Clouds,dailyrainin,SoftwareType,DateUTC
2013-02-20 00:00:00,62.0,59.3,30.09,East,88,0.0,1.0,91,0.00,,,0.00,Weather View 32 v70,2013-02-20 05:00:00,
2013-02-20 00:01:00,62.0,59.3,30.09,East,88,0.0,1.0,91,0.00,,,0.00,Weather View 32 v70,2013-02-20 05:01:00,
2013-02-20 00:10:00,61.8,58.8,30.09,East,88,0.0,1.0,90,0.00,,,0.00,Weather View 32 v70,2013-02-20 05:10:00,
2013-02-20 00:20:00,61.9,59.2,30.10,East,88,0.0,2.0,91,0.00,,,0.00,Weather View 32 v70,2013-02-20 05:20:00,
2013-02-20 00:30:00,61.8,59.1,30.10,NNW,341,0.0,2.0,91,0.00,,,0.00,Weather View 32 v70,2013-02-20 05:30:00,
2013-02-20 00:40:00,61.7,58.7,30.10,SE,140,0.0,2.0,90,0.00,,,0.00,Weather View 32 v70,2013-02-20 05:40:00,
2013-02-20 00:50:00,61.6,57.7,30.09,North,350,0.0,5.0,87,0.00,,,0.00,Weather View 32 v70,2013-02-20 05:50:00,
2013-02-20 01:00:00,61.3,57.1,30.09,NNE,13,1.0,5.0,86,0.00,,,0.00,Weather View 32 v70,2013-02-20 06:00:00,
2013-02-20 01:01:00,61.3,57.1,30.09,NNE,13,1.0,5.0,86,0.00,,,0.00,Weather View 32 v70,2013-02-20 06:01:00,
2013-02-20 01:10:00,60.9,57.0,30.09,North,355,0.0,5.0,87,0.00,,,0.00,Weather View 32 v70,2013-02-20 06:10:00,
2013-02-20 01:20:00,60.7,57.1,30.10,North,355,0.0,5.0,88,0.00,,,0.00,Weather View 32 v70,2013-02-20 06:20:00,
2013-02-20 01:30:00,60.5,56.9,30.09,North,355,0.0,5.0,88,0.00,,,0.00,Weather View 32 v70,2013-02-20 06:30:00,
2013-02-20 01:40:00,60.4,56.8,30.09,NNW,342,1.0,5.0,88,0.00,,,0.00,Weather View 32 v70,2013-02-20 06:40:00,
2013-02-20 01:50:00,59.9,56.3,30.09,NE,51,0.0,4.0,88,0.00,,,0.00,Weather View 32 v70,2013-02-20 06:50:00,
2013-02-20 02:00:00,59.4,56.1,30.10,NE,51,0.0,3.0,89,0.00,,,0.00,Weather View 32 v70,2013-02-20 07:00:00,
2013-02-20 02:02:00,59.4,56.1,30.10,NE,51,0.0,3.0,89,0.00,,,0.00,Weather View 32 v70,2013-02-20 07:02:00,
2013-02-20 02:10:00,59.1,56.2,30.10,NE,51,0.0,3.0,90,0.00,,,0.00,Weather View 32 v70,2013-02-20 07:10:00,
2013-02-20 02:20:00,58.7,55.8,30.10,NE,51,0.0,3.0,90,0.00,,,0.00,Weather View 32 v70,2013-02-20 07:20:00,
2013-02-20 02:30:00,58.5,55.9,30.10,NE,51,0.0,3.0,91,0.00,,,0.00,Weather View 32 v70,2013-02-20 07:30:00,
2013-02-20 02:40:00,58.4,55.8,30.10,NE,51,0.0,2.0,91,0.00,,,0.00,Weather View 32 v70,2013-02-20 07:40:00,
2013-02-20 02:50:00,58.5,55.9,30.10,NE,51,0.0,1.0,91,0.00,,,0.00,Weather View 32 v70,2013-02-20 07:50:00,
2013-02-20 03:00:00,58.4,55.8,30.10,NE,51,0.0,1.0,91,0.00,,,0.00,Weather View 32 v70,2013-02-20 08:00:00,
2013-02-20 03:10:00,58.4,56.1,30.10,NE,51,0.0,0.0,92,0.00,,,0.00,Weather View 32 v70,2013-02-20 08:10:00,
2013-02-20 03:20:00,58.1,55.8,30.10,NE,51,0.0,0.0,92,0.00,,,0.00,Weather View 32 v70,2013-02-20 08:20:00,
2013-02-20 03:30:00,57.6,55.3,30.09,NE,51,0.0,0.0,92,0.00,,,0.00,Weather View 32 v70,2013-02-20 08:30:00,
2013-02-20 03:40:00,57.1,54.8,30.09,NNE,15,1.0,4.0,92,0.00,,,0.00,Weather View 32 v70,2013-02-20 08:40:00,
2013-02-20 03:50:00,56.8,53.0,30.09,NNE,22,1.0,4.0,87,0.00,,,0.00,Weather View 32 v70,2013-02-20 08:50:00,
2013-02-20 04:00:00,56.2,51.1,30.09,NNE,32,0.0,5.0,83,0.00,,,0.00,Weather View 32 v70,2013-02-20 09:00:00,
2013-02-20 04:03:00,56.2,51.1,30.09,NNE,32,0.0,5.0,83,0.00,,,0.00,Weather View 32 v70,2013-02-20 09:03:00,
2013-02-20 04:10:00,55.4,50.6,30.09,NE,40,0.0,5.0,84,0.00,,,0.00,Weather View 32 v70,2013-02-20 09:10:00,
2013-02-20 04:20:00,54.9,50.1,30.09,ESE,114,0.0,5.0,84,0.00,,,0.00,Weather View 32 v70,2013-02-20 09:20:00,
2013-02-20 04:30:00,54.3,49.6,30.09,NNE,12,1.0,5.0,84,0.00,,,0.00,Weather View 32 v70,2013-02-20 09:30:00,
2013-02-20 04:40:00,53.9,49.2,30.10,NNW,343,0.0,5.0,84,0.00,,,0.00,Weather View 32 v70,2013-02-20 09:40:00,
2013-02-20 04:50:00,53.4,48.7,30.10,NNW,342,1.0,5.0,84,0.00,,,0.00,Weather View 32 v70,2013-02-20 09:50:00,
2013-02-20 05:00:00,53.1,48.1,30.11,ENE,65,1.0,5.0,83,0.00,,,0.00,Weather View 32 v70,2013-02-20 10:00:00,
2013-02-20 05:10:00,52.9,47.5,30.11,NE,41,0.0,4.0,82,0.00,,,0.00,Weather View 32 v70,2013-02-20 10:10:00,
2013-02-20 05:20:00,52.7,47.3,30.12,ESE,113,0.0,4.0,82,0.00,,,0.00,Weather View 32 v70,2013-02-20 10:20:00,
2013-02-20 05:30:00,52.2,46.5,30.12,North,350,0.0,4.0,81,0.00,,,0.00,Weather View 32 v70,2013-02-20 10:30:00,
2013-02-20 05:40:00,51.7,46.4,30.12,NNW,348,0.0,4.0,82,0.00,,,0.00,Weather View 32 v70,2013-02-20 10:40:00,
2013-02-20 05:50:00,51.3,45.7,30.13,ESE,102,0.0,4.0,81,0.00,,,0.00,Weather View 32 v70,2013-02-20 10:50:00,
2013-02-20 06:00:00,51.0,45.7,30.13,ESE,102,0.0,3.0,82,0.00,,,0.00,Weather View 32 v70,2013-02-20 11:00:00,
2013-02-20 06:04:00,51.0,45.7,30.13,ESE,102,0.0,3.0,82,0.00,,,0.00,Weather View 32 v70,2013-02-20 11:04:00,
2013-02-20 06:10:00,50.4,45.1,30.14,ESE,102,0.0,3.0,82,0.00,,,0.00,Weather View 32 v70,2013-02-20 11:10:00,
2013-02-20 06:20:00,50.0,43.7,30.14,ESE,119,4.0,5.0,79,0.00,,,0.00,Weather View 32 v70,2013-02-20 11:20:00,
2013-02-20 06:30:00,50.3,40.9,30.14,East,82,3.0,5.0,70,0.00,,,0.00,Weather View 32 v70,2013-02-20 11:30:00,
2013-02-20 06:40:00,50.1,38.8,30.14,East,101,0.0,6.0,65,0.00,,,0.00,Weather View 32 v70,2013-02-20 11:40:00,
2013-02-20 06:50:00,49.9,38.6,30.15,ESE,107,0.0,6.0,65,0.00,,,0.00,Weather View 32 v70,2013-02-20 11:50:00,
2013-02-20 07:00:00,49.7,39.2,30.15,East,87,2.0,6.0,67,0.00,,,0.00,Weather View 32 v70,2013-02-20 12:00:00,
2013-02-20 07:05:00,49.7,39.2,30.15,East,87,2.0,6.0,67,0.00,,,0.00,Weather View 32 v70,2013-02-20 12:05:00,
2013-02-20 07:10:00,49.4,39.6,30.15,North,360,0.0,6.0,69,0.00,,,0.00,Weather View 32 v70,2013-02-20 12:10:00,
2013-02-20 07:20:00,48.9,39.9,30.15,North,5,0.0,6.0,71,0.00,,,0.00,Weather View 32 v70,2013-02-20 12:20:00,
2013-02-20 07:30:00,48.5,40.6,30.15,North,5,0.0,6.0,74,0.00,,,0.00,Weather View 32 v70,2013-02-20 12:30:00,
2013-02-20 07:40:00,48.5,41.9,30.15,North,360,0.0,6.0,78,0.00,,,0.00,Weather View 32 v70,2013-02-20 12:40:00,
2013-02-20 07:50:00,48.9,42.7,30.16,ESE,107,1.0,5.0,79,0.00,,,0.00,Weather View 32 v70,2013-02-20 12:50:00,
2013-02-20 08:00:00,49.4,41.1,30.16,NNE,23,3.0,5.0,73,0.00,,,0.00,Weather View 32 v70,2013-02-20 13:00:00,
2013-02-20 08:05:00,49.4,41.1,30.16,NNE,23,3.0,5.0,73,0.00,,,0.00,Weather View 32 v70,2013-02-20 13:05:00,
2013-02-20 08:10:00,49.8,40.4,30.17,ESE,111,0.0,5.0,70,0.00,,,0.00,Weather View 32 v70,2013-02-20 13:10:00,
2013-02-20 08:20:00,50.1,40.3,30.17,East,81,3.0,5.0,69,0.00,,,0.00,Weather View 32 v70,2013-02-20 13:20:00,
2013-02-20 08:30:00,50.7,40.9,30.17,NNE,22,1.0,8.0,69,0.00,,,0.00,Weather View 32 v70,2013-02-20 13:30:00,
2013-02-20 08:40:00,51.1,40.9,30.17,ENE,76,4.0,9.0,68,0.00,,,0.00,Weather View 32 v70,2013-02-20 13:40:00,
2013-02-20 08:50:00,51.1,40.5,30.17,ESE,112,4.0,9.0,67,0.00,,,0.00,Weather View 32 v70,2013-02-20 13:50:00,
2013-02-20 09:00:00,51.4,39.6,30.17,ENE,75,7.0,9.0,64,0.00,,,0.00,Weather View 32 v70,2013-02-20 14:00:00,
2013-02-20 09:06:00,51.4,39.6,30.17,ENE,75,7.0,9.0,64,0.00,,,0.00,Weather View 32 v70,2013-02-20 14:06:00,
2013-02-20 09:20:00,52.8,38.8,30.17,North,355,1.0,10.0,59,0.00,,,0.00,Weather View 32 v70,2013-02-20 14:20:00,
2013-02-20 09:30:00,53.1,37.3,30.17,ESE,109,5.0,10.0,55,0.00,,,0.00,Weather View 32 v70,2013-02-20 14:30:00,
2013-02-20 09:40:00,53.9,37.1,30.17,North,5,0.0,10.0,53,0.00,,,0.00,Weather View 32 v70,2013-02-20 14:40:00,
2013-02-20 09:50:00,54.2,36.9,30.17,ENE,78,0.0,10.0,52,0.00,,,0.00,Weather View 32 v70,2013-02-20 14:50:00,
2013-02-20 10:00:00,53.9,36.2,30.16,ENE,67,2.0,10.0,51,0.00,,,0.00,Weather View 32 v70,2013-02-20 15:00:00,
2013-02-20 10:06:00,53.9,36.2,30.16,ENE,67,2.0,10.0,51,0.00,,,0.00,Weather View 32 v70,2013-02-20 15:06:00,
2013-02-20 10:10:00,54.6,35.3,30.17,ESE,122,5.0,10.0,48,0.00,,,0.00,Weather View 32 v70,2013-02-20 15:10:00,
2013-02-20 10:20:00,55.5,36.1,30.17,ENE,59,2.0,10.0,48,0.00,,,0.00,Weather View 32 v70,2013-02-20 15:20:00,
2013-02-20 10:30:00,55.7,35.7,30.17,East,89,1.0,10.0,47,0.00,,,0.00,Weather View 32 v70,2013-02-20 15:30:00,
2013-02-20 10:40:00,55.3,34.8,30.17,ENE,76,1.0,10.0,46,0.00,,,0.00,Weather View 32 v70,2013-02-20 15:40:00,
2013-02-20 10:50:00,56.8,36.7,30.17,ENE,63,3.0,10.0,47,0.00,,,0.00,Weather View 32 v70,2013-02-20 15:50:00,
2013-02-20 11:00:00,56.4,35.8,30.16,ESE,121,5.0,10.0,46,0.00,,,0.00,Weather View 32 v70,2013-02-20 16:00:00,
2013-02-20 11:07:00,56.4,35.8,30.16,ESE,121,5.0,10.0,46,0.00,,,0.00,Weather View 32 v70,2013-02-20 16:07:00,
2013-02-20 11:10:00,57.2,36.0,30.16,NE,50,0.0,9.0,45,0.00,,,0.00,Weather View 32 v70,2013-02-20 16:10:00,
2013-02-20 11:20:00,57.8,36.0,30.16,South,190,0.0,9.0,44,0.00,,,0.00,Weather View 32 v70,2013-02-20 16:20:00,
2013-02-20 11:30:00,58.1,36.3,30.15,East,96,5.0,9.0,44,0.00,,,0.00,Weather View 32 v70,2013-02-20 16:30:00,
2013-02-20 11:40:00,58.4,36.5,30.15,ESE,123,0.0,9.0,44,0.00,,,0.00,Weather View 32 v70,2013-02-20 16:40:00,
2013-02-20 11:50:00,59.1,36.6,30.14,SSE,148,0.0,9.0,43,0.00,,,0.00,Weather View 32 v70,2013-02-20 16:50:00,
2013-02-20 12:00:00,60.1,37.5,30.13,South,171,0.0,8.0,43,0.00,,,0.00,Weather View 32 v70,2013-02-20 17:00:00,
2013-02-20 12:07:00,60.1,37.5,30.13,South,171,0.0,8.0,43,0.00,,,0.00,Weather View 32 v70,2013-02-20 17:07:00,
2013-02-20 12:20:00,61.1,38.4,30.12,SW,235,1.0,9.0,43,0.00,,,0.00,Weather View 32 v70,2013-02-20 17:20:00,
2013-02-20 12:30:00,61.0,38.3,30.11,West,271,1.0,9.0,43,0.00,,,0.00,Weather View 32 v70,2013-02-20 17:30:00,
2013-02-20 12:40:00,61.6,39.4,30.10,SSW,194,0.0,9.0,44,0.00,,,0.00,Weather View 32 v70,2013-02-20 17:40:00,
2013-02-20 12:50:00,61.6,39.4,30.10,WSW,248,2.0,9.0,44,0.00,,,0.00,Weather View 32 v70,2013-02-20 17:50:00,
2013-02-20 13:00:00,62.4,40.1,30.10,SW,217,1.0,9.0,44,0.00,,,0.00,Weather View 32 v70,2013-02-20 18:00:00,
2013-02-20 13:08:00,62.4,40.1,30.10,SW,217,1.0,9.0,44,0.00,,,0.00,Weather View 32 v70,2013-02-20 18:08:00,
2013-02-20 13:20:00,63.7,44.7,30.09,SW,221,3.0,4.0,50,0.00,,,0.00,Weather View 32 v70,2013-02-20 18:20:00,
2013-02-20 13:30:00,64.1,42.3,30.08,SSW,204,0.0,4.0,45,0.00,,,0.00,Weather View 32 v70,2013-02-20 18:30:00,
2013-02-20 13:40:00,64.3,43.6,30.07,SSW,213,0.0,4.0,47,0.00,,,0.00,Weather View 32 v70,2013-02-20 18:40:00,
2013-02-20 13:50:00,64.7,44.5,30.07,SSW,196,0.0,4.0,48,0.00,,,0.00,Weather View 32 v70,2013-02-20 18:50:00,
2013-02-20 14:00:00,65.1,45.4,30.06,SW,217,0.0,4.0,49,0.00,,,0.00,Weather View 32 v70,2013-02-20 19:00:00,
2013-02-20 14:09:00,65.1,45.4,30.06,SW,217,0.0,4.0,49,0.00,,,0.00,Weather View 32 v70,2013-02-20 19:09:00,
2013-02-20 14:20:00,66.0,45.1,30.06,SSW,201,1.0,4.0,47,0.00,,,0.00,Weather View 32 v70,2013-02-20 19:20:00,
2013-02-20 14:30:00,66.7,43.4,30.05,SW,220,0.0,4.0,43,0.00,,,0.00,Weather View 32 v70,2013-02-20 19:30:00,
2013-02-20 14:40:00,67.0,46.1,30.05,SW,219,0.0,4.0,47,0.00,,,0.00,Weather View 32 v70,2013-02-20 19:40:00,
2013-02-20 14:50:00,67.4,46.4,30.05,SSW,194,1.0,4.0,47,0.00,,,0.00,Weather View 32 v70,2013-02-20 19:50:00,
2013-02-20 15:00:00,67.3,48.5,30.05,WSW,242,2.0,4.0,51,0.00,,,0.00,Weather View 32 v70,2013-02-20 20:00:00,
2013-02-20 15:09:00,67.3,48.5,30.05,WSW,242,2.0,4.0,51,0.00,,,0.00,Weather View 32 v70,2013-02-20 20:09:00,
2013-02-20 15:10:00,68.4,45.0,30.06,NNW,333,0.0,5.0,43,0.00,,,0.00,Weather View 32 v70,2013-02-20 20:10:00,
2013-02-20 15:20:00,68.8,45.9,30.06,NE,46,2.0,7.0,44,0.00,,,0.00,Weather View 32 v70,2013-02-20 20:20:00,
2013-02-20 15:30:00,69.1,46.2,30.07,WNW,303,3.0,7.0,44,0.00,,,0.00,Weather View 32 v70,2013-02-20 20:30:00,
2013-02-20 15:40:00,68.7,45.2,30.06,North,5,5.0,7.0,43,0.00,,,0.00,Weather View 32 v70,2013-02-20 20:40:00,
2013-02-20 15:50:00,68.3,44.3,30.06,NW,307,1.0,8.0,42,0.00,,,0.00,Weather View 32 v70,2013-02-20 20:50:00,
2013-02-20 16:00:00,68.1,44.1,30.06,North,360,5.0,8.0,42,0.00,,,0.00,Weather View 32 v70,2013-02-20 21:00:00,
2013-02-20 16:10:00,68.1,44.1,30.06,North,5,2.0,8.0,42,0.00,,,0.00,Weather View 32 v70,2013-02-20 21:10:00,
2013-02-20 16:20:00,67.9,45.1,30.06,NNW,335,0.0,8.0,44,0.00,,,0.00,Weather View 32 v70,2013-02-20 21:20:00,
2013-02-20 16:30:00,67.7,44.3,30.06,NNE,24,0.0,8.0,43,0.00,,,0.00,Weather View 32 v70,2013-02-20 21:30:00,
2013-02-20 16:40:00,67.4,44.7,30.06,North,360,0.0,8.0,44,0.00,,,0.00,Weather View 32 v70,2013-02-20 21:40:00,
2013-02-20 16:50:00,67.2,44.5,30.06,NNW,347,0.0,6.0,44,0.00,,,0.00,Weather View 32 v70,2013-02-20 21:50:00,
2013-02-20 17:00:00,67.0,44.9,30.06,SW,215,0.0,5.0,45,0.00,,,0.00,Weather View 32 v70,2013-02-20 22:00:00,
2013-02-20 17:10:00,66.5,46.2,30.07,NNW,343,0.0,4.0,48,0.00,,,0.00,Weather View 32 v70,2013-02-20 22:10:00,
2013-02-20 17:11:00,66.5,46.2,30.07,NNW,343,0.0,4.0,48,0.00,,,0.00,Weather View 32 v70,2013-02-20 22:11:00,
2013-02-20 17:20:00,65.9,46.2,30.07,North,355,0.0,3.0,49,0.00,,,0.00,Weather View 32 v70,2013-02-20 22:20:00,
2013-02-20 17:30:00,65.4,46.8,30.07,North,355,0.0,3.0,51,0.00,,,0.00,Weather View 32 v70,2013-02-20 22:30:00,
2013-02-20 17:40:00,65.0,46.4,30.08,North,360,0.0,3.0,51,0.00,,,0.00,Weather View 32 v70,2013-02-20 22:40:00,
2013-02-20 17:50:00,64.3,46.3,30.08,North,360,0.0,3.0,52,0.00,,,0.00,Weather View 32 v70,2013-02-20 22:50:00,
2013-02-20 18:00:00,63.7,47.2,30.07,North,360,0.0,2.0,55,0.00,,,0.00,Weather View 32 v70,2013-02-20 23:00:00,
2013-02-20 18:10:00,62.8,46.4,30.07,North,360,1.0,2.0,55,0.00,,,0.00,Weather View 32 v70,2013-02-20 23:10:00,
2013-02-20 18:12:00,62.8,46.4,30.07,North,360,1.0,2.0,55,0.00,,,0.00,Weather View 32 v70,2013-02-20 23:12:00,
2013-02-20 18:20:00,62.0,47.0,30.07,North,360,0.0,2.0,58,0.00,,,0.00,Weather View 32 v70,2013-02-20 23:20:00,
2013-02-20 18:30:00,61.0,47.0,30.08,North,360,1.0,2.0,60,0.00,,,0.00,Weather View 32 v70,2013-02-20 23:30:00,
2013-02-20 18:40:00,60.2,47.1,30.08,North,360,1.0,2.0,62,0.00,,,0.00,Weather View 32 v70,2013-02-20 23:40:00,
2013-02-20 18:50:00,59.2,47.0,30.09,North,360,0.0,2.0,64,0.00,,,0.00,Weather View 32 v70,2013-02-20 23:50:00,
2013-02-20 19:00:00,58.2,46.9,30.09,North,360,0.0,2.0,66,0.00,,,0.00,Weather View 32 v70,2013-02-21 00:00:00,
2013-02-20 19:10:00,57.8,46.9,30.10,North,360,0.0,2.0,67,0.00,,,0.00,Weather View 32 v70,2013-02-21 00:10:00,
2013-02-20 19:12:00,57.8,46.9,30.10,North,360,0.0,2.0,67,0.00,,,0.00,Weather View 32 v70,2013-02-21 00:12:00,
2013-02-20 19:20:00,57.5,47.0,30.11,North,360,0.0,2.0,68,0.00,,,0.00,Weather View 32 v70,2013-02-21 00:20:00,
2013-02-20 19:30:00,57.5,48.5,30.12,North,360,0.0,2.0,72,0.00,,,0.00,Weather View 32 v70,2013-02-21 00:30:00,
2013-02-20 19:40:00,58.4,47.1,30.12,South,180,3.0,3.0,66,0.00,,,0.00,Weather View 32 v70,2013-02-21 00:40:00,
2013-02-20 19:50:00,58.9,46.7,30.12,South,180,0.0,3.0,64,0.00,,,0.00,Weather View 32 v70,2013-02-21 00:50:00,
2013-02-20 20:00:00,58.7,47.3,30.11,South,180,0.0,3.0,66,0.00,,,0.00,Weather View 32 v70,2013-02-21 01:00:00,
2013-02-20 20:10:00,58.5,47.2,30.12,South,180,0.0,3.0,66,0.00,,,0.00,Weather View 32 v70,2013-02-21 01:10:00,
2013-02-20 20:13:00,58.5,47.2,30.12,South,180,0.0,3.0,66,0.00,,,0.00,Weather View 32 v70,2013-02-21 01:13:00,
2013-02-20 20:20:00,58.3,46.6,30.12,SSE,160,0.0,3.0,65,0.00,,,0.00,Weather View 32 v70,2013-02-21 01:20:00,
2013-02-20 20:30:00,57.8,47.7,30.11,SSE,160,0.0,3.0,69,0.00,,,0.00,Weather View 32 v70,2013-02-21 01:30:00,
2013-02-20 20:40:00,57.2,46.7,30.10,SSE,160,0.0,3.0,68,0.00,,,0.00,Weather View 32 v70,2013-02-21 01:40:00,
2013-02-20 20:50:00,56.2,46.1,30.10,SSE,160,0.0,2.0,69,0.00,,,0.00,Weather View 32 v70,2013-02-21 01:50:00,
2013-02-20 21:00:00,55.9,46.2,30.10,SSE,160,0.0,2.0,70,0.00,,,0.00,Weather View 32 v70,2013-02-21 02:00:00,
2013-02-20 21:10:00,55.6,46.3,30.10,SSE,160,0.0,2.0,71,0.00,,,0.00,Weather View 32 v70,2013-02-21 02:10:00,
2013-02-20 21:13:00,55.6,46.3,30.10,SSE,160,0.0,2.0,71,0.00,,,0.00,Weather View 32 v70,2013-02-21 02:13:00,
2013-02-20 21:20:00,55.4,46.1,30.10,SSE,162,0.0,2.0,71,0.00,,,0.00,Weather View 32 v70,2013-02-21 02:20:00,
2013-02-20 21:30:00,55.2,45.9,30.10,East,82,1.0,3.0,71,0.00,,,0.00,Weather View 32 v70,2013-02-21 02:30:00,
2013-02-20 21:40:00,54.2,45.4,30.12,East,96,0.0,3.0,72,0.00,,,0.00,Weather View 32 v70,2013-02-21 02:40:00,
2013-02-20 21:50:00,53.5,45.4,30.11,East,96,0.0,3.0,74,0.00,,,0.00,Weather View 32 v70,2013-02-21 02:50:00,
2013-02-20 22:00:00,53.0,45.6,30.11,East,96,0.0,3.0,76,0.00,,,0.00,Weather View 32 v70,2013-02-21 03:00:00,
2013-02-20 22:10:00,52.5,44.8,30.11,East,96,0.0,3.0,75,0.00,,,0.00,Weather View 32 v70,2013-02-21 03:10:00,
2013-02-20 22:14:00,52.5,44.8,30.11,East,96,0.0,3.0,75,0.00,,,0.00,Weather View 32 v70,2013-02-21 03:14:00,
2013-02-20 22:20:00,52.0,45.0,30.11,East,96,0.0,3.0,77,0.00,,,0.00,Weather View 32 v70,2013-02-21 03:20:00,
2013-02-20 22:30:00,51.3,44.7,30.11,East,96,0.0,2.0,78,0.00,,,0.00,Weather View 32 v70,2013-02-21 03:30:00,
2013-02-20 22:40:00,50.3,44.0,30.11,East,96,0.0,1.0,79,0.00,,,0.00,Weather View 32 v70,2013-02-21 03:40:00,
2013-02-20 22:50:00,49.9,44.3,30.11,East,96,0.0,1.0,81,0.00,,,0.00,Weather View 32 v70,2013-02-21 03:50:00,
2013-02-20 23:00:00,49.7,44.1,30.11,East,96,0.0,2.0,81,0.00,,,0.00,Weather View 32 v70,2013-02-21 04:00:00,
2013-02-20 23:10:00,49.2,43.9,30.11,East,96,0.0,2.0,82,0.00,,,0.00,Weather View 32 v70,2013-02-21 04:10:00,
2013-02-20 23:14:00,49.2,43.9,30.11,East,96,0.0,2.0,82,0.00,,,0.00,Weather View 32 v70,2013-02-21 04:14:00,
2013-02-20 23:20:00,48.7,43.8,30.10,East,96,0.0,2.0,83,0.00,,,0.00,Weather View 32 v70,2013-02-21 04:20:00,
2013-02-20 23:30:00,48.2,43.6,30.10,East,96,0.0,2.0,84,0.00,,,0.00,Weather View 32 v70,2013-02-21 04:30:00,
2013-02-20 23:40:00,47.9,43.3,30.10,East,96,0.0,2.0,84,0.00,,,0.00,Weather View 32 v70,2013-02-21 04:40:00,
2013-02-20 23:50:00,47.6,43.4,30.10,East,96,0.0,2.0,85,0.00,,,0.00,Weather View 32 v70,2013-02-21 04:50:00,